createdAt,value
2019-03-30T00:02:23.616Z,4.97
2019-03-30T00:04:55.018Z,4.93
2019-03-30T00:07:26.338Z,4.86
2019-03-30T00:09:57.578Z,4.72
2019-03-30T00:12:28.881Z,4.62
2019-03-30T00:15:00.245Z,4.56
2019-03-30T00:17:31.456Z,4.58
2019-03-30T00:20:02.748Z,4.59
2019-03-30T00:22:34.055Z,4.45
2019-03-30T00:25:05.831Z,4.38
2019-03-30T00:27:37.054Z,4.26
2019-03-30T00:30:08.448Z,4.30
2019-03-30T00:32:39.739Z,4.00
2019-03-30T00:35:11.057Z,3.99
2019-03-30T00:37:42.286Z,4.04
2019-03-30T00:40:13.588Z,4.05
2019-03-30T00:42:44.900Z,4.12
2019-03-30T00:45:16.183Z,4.11
2019-03-30T00:47:47.429Z,4.05
2019-03-30T00:50:18.639Z,4.01
2019-03-30T00:52:49.966Z,4.03
2019-03-30T00:55:21.313Z,4.02
2019-03-30T00:57:52.453Z,3.96
2019-03-30T01:00:23.806Z,4.06
2019-03-30T01:02:55.163Z,4.15
2019-03-30T01:05:26.459Z,4.11
2019-03-30T01:07:57.652Z,4.14
2019-03-30T01:10:28.988Z,4.13
2019-03-30T01:13:00.054Z,4.14
2019-03-30T01:15:31.285Z,4.12
2019-03-30T01:18:02.579Z,4.14
2019-03-30T01:20:33.910Z,4.07
2019-03-30T01:23:05.187Z,4.01
2019-03-30T01:25:36.608Z,4.09
2019-03-30T01:28:07.910Z,4.17
2019-03-30T01:30:39.267Z,4.17
2019-03-30T01:33:10.591Z,4.16
2019-03-30T01:35:41.845Z,4.21
2019-03-30T01:38:13.068Z,4.18
2019-03-30T01:40:44.289Z,4.07
2019-03-30T01:43:15.482Z,4.12
2019-03-30T01:45:46.761Z,4.04
2019-03-30T01:48:18.014Z,3.97
2019-03-30T01:50:49.298Z,3.97
2019-03-30T01:53:20.578Z,3.83
2019-03-30T01:55:51.891Z,3.80
2019-03-30T01:58:23.191Z,3.74
2019-03-30T02:00:54.353Z,3.77
2019-03-30T02:03:25.634Z,3.67
2019-03-30T02:05:56.943Z,3.56
2019-03-30T02:08:28.237Z,3.46
2019-03-30T02:10:59.655Z,3.40
2019-03-30T02:13:30.877Z,3.50
2019-03-30T02:16:02.218Z,3.53
2019-03-30T02:18:33.572Z,3.54
2019-03-30T02:21:04.871Z,3.60
2019-03-30T02:23:36.361Z,3.63
2019-03-30T02:26:07.728Z,3.58
2019-03-30T02:28:38.987Z,3.47
2019-03-30T02:31:10.380Z,3.33
2019-03-30T02:33:41.842Z,3.30
2019-03-30T02:36:13.231Z,3.28
2019-03-30T02:38:44.600Z,3.24
2019-03-30T02:41:15.932Z,3.16
2019-03-30T02:43:47.215Z,3.18
2019-03-30T02:46:18.411Z,3.16
2019-03-30T02:48:49.799Z,3.12
2019-03-30T02:51:21.111Z,3.10
2019-03-30T02:56:43.540Z,3.09
2019-03-30T02:59:14.752Z,3.09
2019-03-30T03:01:46.053Z,3.08
2019-03-30T03:04:17.369Z,3.07
2019-03-30T03:06:48.692Z,3.05
2019-03-30T06:31:16.881Z,4.00
2019-03-30T06:33:49.003Z,4.17
2019-03-30T06:36:20.415Z,4.33
2019-03-30T06:38:51.940Z,4.55
2019-03-30T06:41:23.323Z,4.74
2019-03-30T06:43:54.646Z,5.02
2019-03-30T06:46:30.025Z,5.26
2019-03-30T06:49:01.390Z,5.64
2019-03-30T06:51:32.620Z,5.91
2019-03-30T06:54:04.620Z,6.08
2019-03-30T06:56:36.126Z,6.29
2019-03-30T06:59:07.415Z,6.42
2019-03-30T07:01:38.746Z,6.57
2019-03-30T07:04:11.345Z,6.72
2019-03-30T07:06:44.724Z,6.87
2019-03-30T07:09:18.730Z,6.94
2019-03-30T07:11:53.619Z,6.99
2019-03-30T07:14:27.424Z,7.12
2019-03-30T07:17:01.925Z,7.23
2019-03-30T07:19:37.970Z,7.36
2019-03-30T07:22:09.276Z,7.46
2019-03-30T07:24:40.646Z,7.59
2019-03-30T07:27:11.932Z,7.70
2019-03-30T07:29:43.290Z,7.76
2019-03-30T07:32:14.602Z,7.83
2019-03-30T07:34:45.970Z,7.95
2019-03-30T07:37:17.272Z,7.99
2019-03-30T07:39:48.586Z,8.10
2019-03-30T07:42:19.888Z,8.17
2019-03-30T07:44:51.392Z,8.26
2019-03-30T07:47:22.744Z,8.36
2019-03-30T07:49:54.126Z,8.48
2019-03-30T07:52:25.402Z,8.57
2019-03-30T07:54:56.606Z,8.67
2019-03-30T07:57:27.852Z,8.87
2019-03-30T07:59:59.193Z,8.90
2019-03-30T08:02:30.421Z,9.06
2019-03-30T08:05:01.691Z,9.12
2019-03-30T08:07:32.972Z,9.27
2019-03-30T08:10:04.601Z,9.41
2019-03-30T08:12:36.587Z,9.47
2019-03-30T08:15:09.423Z,9.62
2019-03-30T08:17:43.108Z,9.68
2019-03-30T08:20:15.513Z,9.78
2019-03-30T08:22:46.812Z,9.83
2019-03-30T08:25:18.232Z,9.95
2019-03-30T08:27:49.569Z,10.10
2019-03-30T08:30:20.863Z,10.26
2019-03-30T08:32:52.245Z,10.29
2019-03-30T08:35:23.466Z,10.44
2019-03-30T08:37:54.747Z,10.63
2019-03-30T08:40:26.087Z,10.82
2019-03-30T08:42:57.428Z,10.79
2019-03-30T08:45:28.748Z,10.99
2019-03-30T08:48:00.010Z,10.97
2019-03-30T08:50:31.404Z,11.09
2019-03-30T08:53:02.727Z,11.11
2019-03-30T08:55:34.084Z,11.15
2019-03-30T08:58:05.390Z,11.33
2019-03-30T09:00:42.303Z,11.45
2019-03-30T09:03:13.788Z,11.55
2019-03-30T09:05:45.082Z,11.61
2019-03-30T09:08:16.446Z,11.75
2019-03-30T09:10:47.767Z,11.91
2019-03-30T09:13:19.083Z,11.89
2019-03-30T09:15:50.443Z,12.01
2019-03-30T09:18:21.793Z,12.17
2019-03-30T09:20:53.110Z,12.25
2019-03-30T09:23:24.610Z,12.30
2019-03-30T09:25:55.937Z,12.47
2019-03-30T09:28:27.272Z,12.48
2019-03-30T09:30:58.625Z,12.56
2019-03-30T09:33:29.911Z,12.82
2019-03-30T09:36:01.255Z,13.00
2019-03-30T09:38:32.573Z,13.04
2019-03-30T09:41:04.224Z,13.10
2019-03-30T09:43:37.504Z,13.13
2019-03-30T09:46:08.559Z,13.21
2019-03-30T09:48:39.857Z,13.37
2019-03-30T09:51:11.187Z,13.48
2019-03-30T09:53:42.549Z,13.47
2019-03-30T09:56:13.931Z,13.54
2019-03-30T09:58:45.193Z,13.64
2019-03-30T10:01:16.610Z,13.62
2019-03-30T10:03:47.932Z,13.80
2019-03-30T10:06:19.242Z,13.94
2019-03-30T10:08:50.483Z,13.96
2019-03-30T10:11:21.693Z,13.97
2019-03-30T10:13:52.933Z,14.08
2019-03-30T10:16:24.303Z,14.19
2019-03-30T10:18:55.538Z,14.11
2019-03-30T10:21:26.848Z,14.19
2019-03-30T10:23:58.107Z,14.36
2019-03-30T10:26:29.409Z,14.50
2019-03-30T10:29:00.669Z,14.38
2019-03-30T10:31:32.032Z,14.46
2019-03-30T10:34:03.340Z,14.46
2019-03-30T10:36:34.558Z,14.56
2019-03-30T10:39:07.747Z,14.59
2019-03-30T10:41:39.058Z,14.70
2019-03-30T10:44:10.397Z,14.84
2019-03-30T10:46:41.793Z,15.15
2019-03-30T10:49:13.098Z,15.23
2019-03-30T10:51:44.295Z,15.28
2019-03-30T10:54:15.604Z,15.24
2019-03-30T10:56:46.847Z,15.29
2019-03-30T10:59:18.063Z,15.46
2019-03-30T11:01:49.393Z,15.57
2019-03-30T11:04:20.586Z,15.38
2019-03-30T11:06:51.872Z,15.34
2019-03-30T11:09:23.196Z,15.50
2019-03-30T11:11:54.515Z,15.57
2019-03-30T11:14:25.917Z,15.60
2019-03-30T11:16:57.163Z,15.55
2019-03-30T11:19:28.385Z,15.72
2019-03-30T11:22:02.905Z,15.71
2019-03-30T11:24:32.660Z,15.69
2019-03-30T11:27:04.036Z,15.61
2019-03-30T11:29:35.245Z,15.73
2019-03-30T11:32:06.603Z,15.98
2019-03-30T11:34:37.750Z,15.88
2019-03-30T11:37:09.077Z,15.84
2019-03-30T11:39:40.335Z,15.80
2019-03-30T11:42:11.635Z,15.81
2019-03-30T11:44:42.898Z,15.89
2019-03-30T11:47:14.244Z,15.96
2019-03-30T11:49:45.481Z,16.20
2019-03-30T11:52:16.728Z,16.26
2019-03-30T11:54:48.046Z,16.33
2019-03-30T11:57:19.347Z,16.29
2019-03-30T11:59:50.674Z,16.33
2019-03-30T12:02:28.171Z,16.43
2019-03-30T12:04:55.167Z,16.50
2019-03-30T12:07:26.509Z,16.77
2019-03-30T12:09:57.829Z,16.80
2019-03-30T12:12:28.960Z,16.85
2019-03-30T12:15:00.488Z,16.86
2019-03-30T12:17:31.784Z,16.91
2019-03-30T12:20:03.079Z,16.88
2019-03-30T12:22:34.395Z,17.19
2019-03-30T12:25:06.425Z,17.14
2019-03-30T12:27:37.659Z,17.19
2019-03-30T12:30:09.306Z,17.48
2019-03-30T12:32:40.700Z,17.18
2019-03-30T12:35:12.329Z,17.58
2019-03-30T12:37:43.506Z,17.80
2019-03-30T12:40:16.291Z,17.78
2019-03-30T12:42:47.949Z,17.61
2019-03-30T12:45:19.329Z,17.64
2019-03-30T12:47:50.619Z,17.66
2019-03-30T12:50:21.929Z,17.48
2019-03-30T12:52:53.278Z,17.81
2019-03-30T12:55:24.596Z,18.55
2019-03-30T12:57:55.918Z,17.66
2019-03-30T13:00:27.216Z,18.14
2019-03-30T13:02:58.547Z,19.98
2019-03-30T13:05:29.823Z,21.28
2019-03-30T13:08:01.110Z,22.43
2019-03-30T13:10:32.440Z,22.57
2019-03-30T13:13:03.656Z,22.37
2019-03-30T13:15:34.886Z,22.44
2019-03-30T13:18:06.217Z,22.56
2019-03-30T13:20:37.517Z,21.51
2019-03-30T13:23:08.768Z,22.37
2019-03-30T13:25:40.087Z,23.91
2019-03-30T13:28:11.413Z,24.61
2019-03-30T13:30:42.734Z,24.11
2019-03-30T13:33:14.073Z,23.39
2019-03-30T13:35:45.263Z,21.38
2019-03-30T13:38:16.399Z,19.99
2019-03-30T13:40:47.775Z,21.26
2019-03-30T13:43:19.090Z,20.11
2019-03-30T13:45:50.356Z,19.21
2019-03-30T13:48:21.688Z,18.59
2019-03-30T13:50:52.978Z,17.97
2019-03-30T13:53:24.211Z,17.85
2019-03-30T13:55:55.493Z,17.75
2019-03-30T13:58:26.747Z,17.60
2019-03-30T14:00:58.050Z,19.03
2019-03-30T14:03:29.253Z,20.65
2019-03-30T14:06:00.560Z,19.96
2019-03-30T14:08:31.759Z,18.21
2019-03-30T14:11:03.132Z,18.21
2019-03-30T14:13:34.434Z,19.56
2019-03-30T14:16:05.739Z,20.78
2019-03-30T14:18:37.192Z,21.85
2019-03-30T14:21:08.497Z,22.61
2019-03-30T14:23:43.212Z,23.75
2019-03-30T14:26:12.923Z,24.49
2019-03-30T14:28:44.041Z,23.84
2019-03-30T14:31:15.300Z,24.65
2019-03-30T14:33:46.581Z,23.90
2019-03-30T14:36:17.852Z,23.51
2019-03-30T14:38:49.152Z,22.58
2019-03-30T14:41:20.921Z,22.23
2019-03-30T14:43:52.301Z,22.73
2019-03-30T14:46:23.483Z,23.27
2019-03-30T14:48:54.820Z,23.28
2019-03-30T14:51:26.031Z,24.80
2019-03-30T14:53:57.349Z,24.16
2019-03-30T14:56:28.695Z,23.44
2019-03-30T14:59:10.090Z,23.98
2019-03-30T15:01:33.056Z,23.79
2019-03-30T15:04:04.620Z,24.06
2019-03-30T15:06:35.927Z,24.09
2019-03-30T15:09:08.776Z,24.26
2019-03-30T15:11:40.061Z,23.09
2019-03-30T15:14:11.348Z,23.62
2019-03-30T15:16:42.800Z,23.86
2019-03-30T15:19:14.163Z,22.19
2019-03-30T15:21:45.445Z,22.68
2019-03-30T15:24:17.000Z,22.86
2019-03-30T15:26:59.374Z,21.96
2019-03-30T15:29:21.578Z,22.38
2019-03-30T15:31:52.898Z,20.36
2019-03-30T15:34:24.417Z,19.27
2019-03-30T15:36:55.887Z,19.63
2019-03-30T15:39:27.689Z,19.25
2019-03-30T15:41:59.104Z,20.01
2019-03-30T15:44:30.451Z,20.35
2019-03-30T15:47:01.817Z,19.87
2019-03-30T15:49:33.120Z,19.70
2019-03-30T15:52:13.723Z,19.87
2019-03-30T15:54:37.655Z,20.25
2019-03-30T15:57:14.321Z,20.75
2019-03-30T15:59:42.226Z,21.06
2019-03-30T16:02:13.583Z,21.99
2019-03-30T16:04:45.026Z,21.60
2019-03-30T16:07:16.597Z,21.61
2019-03-30T16:09:48.029Z,21.52
2019-03-30T16:12:19.605Z,21.23
2019-03-30T16:14:51.040Z,20.75
2019-03-30T16:17:22.438Z,20.27
2019-03-30T16:19:53.913Z,20.12
2019-03-30T16:22:25.340Z,19.76
2019-03-30T16:24:56.862Z,19.16
2019-03-30T16:27:29.490Z,18.31
2019-03-30T16:30:01.142Z,18.29
2019-03-30T16:32:32.633Z,17.89
2019-03-30T16:35:04.098Z,17.96
2019-03-30T16:37:35.459Z,17.73
2019-03-30T16:40:07.498Z,17.46
2019-03-30T16:42:38.847Z,17.14
2019-03-30T16:45:10.932Z,17.03
2019-03-30T16:47:42.380Z,16.92
2019-03-30T16:50:15.374Z,17.02
2019-03-30T16:52:46.735Z,16.82
2019-03-30T16:55:18.128Z,16.59
2019-03-30T16:57:49.405Z,16.54
2019-03-30T17:00:20.865Z,16.53
2019-03-30T17:02:52.243Z,16.34
2019-03-30T17:05:23.621Z,16.34
2019-03-30T17:07:55.049Z,16.40
2019-03-30T17:10:26.412Z,16.55
2019-03-30T17:12:57.829Z,16.62
2019-03-30T17:15:29.270Z,16.61
2019-03-30T17:18:00.612Z,16.56
2019-03-30T17:20:31.972Z,16.26
2019-03-30T17:23:03.274Z,16.08
2019-03-30T17:25:34.693Z,15.89
2019-03-30T17:28:07.076Z,15.55
2019-03-30T17:30:38.956Z,15.16
2019-03-30T17:33:10.312Z,14.76
2019-03-30T17:35:41.774Z,14.56
2019-03-30T17:38:13.301Z,14.46
2019-03-30T17:40:44.653Z,14.39
2019-03-30T17:43:16.103Z,14.32
2019-03-30T17:45:47.578Z,14.31
2019-03-30T17:48:19.151Z,14.11
2019-03-30T17:50:50.637Z,14.12
2019-03-30T17:53:22.250Z,13.87
2019-03-30T17:55:53.636Z,13.88
2019-03-30T17:58:25.168Z,13.87
2019-03-30T18:00:56.646Z,13.73
2019-03-30T18:03:28.073Z,13.80
2019-03-30T18:05:59.438Z,13.75
2019-03-30T18:08:30.926Z,13.63
2019-03-30T18:11:04.112Z,13.64
2019-03-30T18:13:36.976Z,13.56
2019-03-30T18:16:08.463Z,13.43
2019-03-30T18:18:39.887Z,13.34
2019-03-30T18:21:12.198Z,13.24
2019-03-30T18:23:43.545Z,13.22
2019-03-30T18:26:15.251Z,13.12
2019-03-30T18:28:46.567Z,13.02
2019-03-30T18:31:18.354Z,12.94
2019-03-30T18:33:50.354Z,12.93
2019-03-30T18:36:22.115Z,12.82
2019-03-30T18:39:08.784Z,12.84
2019-03-30T18:41:29.125Z,12.80
2019-03-30T18:44:02.173Z,12.72
2019-03-30T18:46:33.742Z,12.71
2019-03-30T18:49:05.238Z,12.62
2019-03-30T18:51:37.466Z,12.59
2019-03-30T18:54:08.983Z,12.49
2019-03-30T18:56:40.559Z,12.38
2019-03-30T18:59:12.121Z,12.25
2019-03-30T19:01:43.558Z,12.22
2019-03-30T19:04:15.020Z,12.17
2019-03-30T19:06:46.488Z,12.05
2019-03-30T19:09:17.951Z,11.99
2019-03-30T19:11:49.832Z,11.85
2019-03-30T19:14:21.413Z,11.75
2019-03-30T19:16:52.887Z,11.73
2019-03-30T19:19:24.338Z,11.67
2019-03-30T19:21:55.757Z,11.55
2019-03-30T19:24:27.215Z,11.44
2019-03-30T19:26:58.732Z,11.37
2019-03-30T19:29:30.175Z,11.30
2019-03-30T19:32:01.580Z,11.21
2019-03-30T19:34:32.976Z,11.16
2019-03-30T19:37:04.356Z,11.05
2019-03-30T19:39:35.778Z,11.04
2019-03-30T19:42:07.664Z,11.01
2019-03-30T19:44:39.051Z,10.84
2019-03-30T19:47:10.473Z,10.82
2019-03-30T19:49:41.906Z,10.80
2019-03-30T19:52:13.301Z,10.75
2019-03-30T19:54:44.851Z,10.65
2019-03-30T19:57:16.296Z,10.56
2019-03-30T19:59:47.731Z,10.51
2019-03-30T20:02:19.195Z,10.42
2019-03-30T20:04:50.621Z,10.38
2019-03-30T20:07:22.130Z,10.30
2019-03-30T20:09:53.531Z,10.29
2019-03-30T20:12:25.229Z,10.18
2019-03-30T20:14:56.803Z,10.10
2019-03-30T20:17:28.314Z,10.10
2019-03-30T20:19:59.726Z,10.09
2019-03-30T20:22:31.152Z,10.04
2019-03-30T20:25:02.490Z,9.94
2019-03-30T20:27:33.811Z,9.96
2019-03-30T20:30:06.227Z,9.85
2019-03-30T20:32:37.762Z,9.77
2019-03-30T20:35:11.251Z,9.62
2019-03-30T20:37:43.015Z,9.57
2019-03-30T20:40:14.591Z,9.45
2019-03-30T20:42:46.010Z,9.42
2019-03-30T20:45:18.781Z,9.32
2019-03-30T20:47:50.230Z,9.24
2019-03-30T20:50:21.642Z,9.17
2019-03-30T20:52:53.002Z,8.98
2019-03-30T20:55:24.343Z,8.98
2019-03-30T20:57:55.757Z,8.94
2019-03-30T21:00:27.114Z,8.93
2019-03-30T21:02:58.633Z,8.82
2019-03-30T21:05:30.039Z,8.84
2019-03-30T21:08:01.544Z,8.83
2019-03-30T21:10:32.958Z,8.70
2019-03-30T21:13:04.523Z,8.64
2019-03-30T21:15:36.075Z,8.62
2019-03-30T21:18:07.379Z,8.61
2019-03-30T21:20:38.620Z,8.60
2019-03-30T21:23:10.010Z,8.48
2019-03-30T21:25:41.341Z,8.44
2019-03-30T21:28:12.685Z,8.38
2019-03-30T21:30:44.030Z,8.30
2019-03-30T21:33:15.276Z,8.36
2019-03-30T21:35:46.595Z,8.21
2019-03-30T21:38:17.966Z,8.19
2019-03-30T21:40:49.228Z,8.14
2019-03-30T21:43:20.571Z,8.07
2019-03-30T21:45:51.884Z,8.03
2019-03-30T21:48:23.114Z,8.01
2019-03-30T21:50:54.342Z,8.00
2019-03-30T21:53:25.636Z,8.01
2019-03-30T21:55:57.007Z,7.96
2019-03-30T21:58:29.192Z,7.95
2019-03-30T22:01:00.556Z,7.91
2019-03-30T22:03:31.811Z,7.87
2019-03-30T22:06:03.173Z,7.79
2019-03-30T22:08:34.582Z,7.77
2019-03-30T22:11:06.264Z,7.72
2019-03-30T22:13:38.667Z,7.75
2019-03-30T22:16:10.031Z,7.65
2019-03-30T22:18:41.381Z,7.61
2019-03-30T22:21:12.626Z,7.56
2019-03-30T22:23:44.174Z,7.56
2019-03-30T22:26:15.599Z,7.50
2019-03-30T22:28:47.059Z,7.49
2019-03-30T22:31:18.767Z,7.49
2019-03-30T22:33:50.217Z,7.42
2019-03-30T22:36:21.753Z,7.41
2019-03-30T22:38:53.257Z,7.41
2019-03-30T22:41:24.783Z,7.33
2019-03-30T22:43:56.243Z,7.29
2019-03-30T22:46:27.791Z,7.25
2019-03-30T22:48:59.235Z,7.25
2019-03-30T22:51:30.643Z,7.36
2019-03-30T22:54:02.126Z,7.26
2019-03-30T22:56:33.535Z,7.27
2019-03-30T22:59:05.041Z,7.25
2019-03-30T23:01:36.801Z,7.21
2019-03-30T23:04:08.406Z,7.22
2019-03-30T23:06:39.852Z,7.25
2019-03-30T23:09:11.701Z,7.15
2019-03-30T23:11:43.488Z,7.11
2019-03-30T23:14:14.956Z,7.05
2019-03-30T23:16:46.466Z,7.11
2019-03-30T23:19:17.965Z,7.12
2019-03-30T23:21:49.436Z,7.24
2019-03-30T23:24:20.928Z,7.28
2019-03-30T23:26:52.472Z,7.26
2019-03-30T23:29:23.935Z,7.27
2019-03-30T23:31:55.472Z,7.36
2019-03-30T23:34:27.000Z,7.24
2019-03-30T23:36:58.539Z,7.23
2019-03-30T23:39:29.997Z,7.30
2019-03-30T23:42:01.560Z,7.14
2019-03-30T23:44:33.085Z,7.07
2019-03-30T23:47:04.635Z,7.11
2019-03-30T23:49:37.113Z,7.12
2019-03-30T23:52:08.674Z,6.94
2019-03-30T23:54:40.178Z,6.98
2019-03-30T23:57:11.665Z,6.94
2019-03-30T23:59:43.150Z,7.03
